createdAt,value
2018-02-18T00:00:05.977Z,23.52
2018-02-18T00:02:34.261Z,24.17
2018-02-18T00:05:02.569Z,27.60
2018-02-18T00:07:30.899Z,24.42
2018-02-18T00:09:59.902Z,24.80
2018-02-18T00:12:28.259Z,26.45
2018-02-18T00:14:57.308Z,25.62
2018-02-18T00:17:25.577Z,28.33
2018-02-18T00:19:55.383Z,28.12
2018-02-18T00:22:23.666Z,29.30
2018-02-18T00:24:52.023Z,26.30
2018-02-18T00:27:20.357Z,26.52
2018-02-18T00:29:49.506Z,27.52
2018-02-18T00:32:17.793Z,28.75
2018-02-18T00:34:46.850Z,27.58
2018-02-18T00:37:15.143Z,27.17
2018-02-18T00:39:43.446Z,28.30
2018-02-18T00:42:11.725Z,29.48
2018-02-18T00:44:40.001Z,28.30
2018-02-18T00:47:08.272Z,30.10
2018-02-18T00:49:36.555Z,27.83
2018-02-18T00:52:04.822Z,30.05
2018-02-18T00:54:33.123Z,30.02
2018-02-18T00:57:02.174Z,32.22
2018-02-18T00:59:30.449Z,31.10
2018-02-18T01:01:58.768Z,30.95
2018-02-18T01:04:27.812Z,31.85
2018-02-18T01:06:56.115Z,29.52
2018-02-18T01:09:24.396Z,31.20
2018-02-18T01:11:52.716Z,32.42
2018-02-18T01:14:21.000Z,28.08
2018-02-18T01:16:49.280Z,30.67
2018-02-18T01:19:17.561Z,28.38
2018-02-18T01:21:45.847Z,28.05
2018-02-18T01:24:14.144Z,27.52
2018-02-18T01:26:42.495Z,30.88
2018-02-18T01:29:10.769Z,29.23
2018-02-18T01:31:39.057Z,26.87
2018-02-18T01:34:07.340Z,30.27
2018-02-18T01:36:35.659Z,30.15
2018-02-18T01:39:04.716Z,29.90
2018-02-18T01:41:32.987Z,31.17
2018-02-18T01:44:01.275Z,30.95
2018-02-18T01:46:29.567Z,29.52
2018-02-18T01:48:57.879Z,29.58
2018-02-18T01:51:26.200Z,28.17
2018-02-18T01:53:55.272Z,29.50
2018-02-18T01:56:23.564Z,27.35
2018-02-18T01:58:51.851Z,28.60
2018-02-18T02:01:20.153Z,28.25
2018-02-18T02:03:49.201Z,29.40
2018-02-18T02:06:17.492Z,29.80
2018-02-18T02:08:45.804Z,27.95
2018-02-18T02:11:14.852Z,27.42
2018-02-18T02:13:43.160Z,28.83
2018-02-18T02:16:11.469Z,26.05
2018-02-18T02:18:39.774Z,30.10
2018-02-18T02:21:08.072Z,26.23
2018-02-18T02:23:36.401Z,25.65
2018-02-18T02:26:04.686Z,27.65
2018-02-18T02:28:32.979Z,28.45
2018-02-18T02:31:01.273Z,29.12
2018-02-18T02:33:29.609Z,30.00
2018-02-18T02:35:57.893Z,29.15
2018-02-18T02:38:26.196Z,29.02
2018-02-18T02:40:54.527Z,28.98
2018-02-18T02:43:23.589Z,28.48
2018-02-18T02:45:51.863Z,29.33
2018-02-18T02:48:20.157Z,30.35
2018-02-18T02:50:49.225Z,29.75
2018-02-18T02:53:17.517Z,30.33
2018-02-18T02:55:45.820Z,29.58
2018-02-18T02:58:14.863Z,30.70
2018-02-18T03:00:43.187Z,28.65
2018-02-18T03:03:12.244Z,29.80
2018-02-18T03:05:40.557Z,30.73
2018-02-18T03:08:09.623Z,29.55
2018-02-18T03:10:37.986Z,30.12
2018-02-18T03:13:06.315Z,30.15
2018-02-18T03:15:35.376Z,29.45
2018-02-18T03:18:03.655Z,31.10
2018-02-18T03:20:31.944Z,27.33
2018-02-18T03:23:00.997Z,28.30
2018-02-18T03:25:29.313Z,28.10
2018-02-18T03:27:58.370Z,29.92
2018-02-18T03:30:26.706Z,27.73
2018-02-18T03:32:55.004Z,28.85
2018-02-18T03:35:23.294Z,26.92
2018-02-18T03:37:51.592Z,28.62
2018-02-18T03:40:19.854Z,29.27
2018-02-18T03:42:48.128Z,30.00
2018-02-18T03:45:16.396Z,31.55
2018-02-18T03:47:44.693Z,29.15
2018-02-18T03:50:12.973Z,29.50
2018-02-18T03:52:41.253Z,27.10
2018-02-18T03:55:09.551Z,30.83
2018-02-18T03:57:38.624Z,27.67
2018-02-18T04:00:06.915Z,29.37
2018-02-18T04:02:35.194Z,29.02
2018-02-18T04:05:04.238Z,30.33
2018-02-18T04:07:32.520Z,30.35
2018-02-18T04:10:00.857Z,30.40
2018-02-18T04:12:29.181Z,30.55
2018-02-18T04:14:57.460Z,25.80
2018-02-18T04:17:25.754Z,31.17
2018-02-18T04:19:54.028Z,28.48
2018-02-18T04:22:22.332Z,30.70
2018-02-18T04:24:51.409Z,32.33
2018-02-18T04:27:19.720Z,32.40
2018-02-18T04:29:48.030Z,30.20
2018-02-18T04:32:16.339Z,30.83
2018-02-18T04:34:44.670Z,31.60
2018-02-18T04:37:12.951Z,31.50
2018-02-18T04:39:41.251Z,31.83
2018-02-18T04:42:09.526Z,30.90
2018-02-18T04:44:37.835Z,32.08
2018-02-18T04:47:06.913Z,32.70
2018-02-18T04:49:35.203Z,31.20
2018-02-18T04:52:04.274Z,29.45
2018-02-18T04:54:32.608Z,33.42
2018-02-18T04:57:00.893Z,30.40
2018-02-18T04:59:29.192Z,36.05
2018-02-18T05:01:57.507Z,35.42
2018-02-18T05:04:26.559Z,33.78
2018-02-18T05:06:54.895Z,33.15
2018-02-18T05:09:23.266Z,31.80
2018-02-18T05:11:51.573Z,32.40
2018-02-18T05:14:19.851Z,33.35
2018-02-18T05:16:48.160Z,34.83
2018-02-18T05:19:16.445Z,36.95
2018-02-18T05:21:44.754Z,34.53
2018-02-18T05:24:13.062Z,36.72
2018-02-18T05:26:41.395Z,37.72
2018-02-18T05:29:10.494Z,34.95
2018-02-18T05:31:39.551Z,35.75
2018-02-18T05:34:07.854Z,32.97
2018-02-18T05:36:37.738Z,36.55
2018-02-18T05:39:06.084Z,38.67
2018-02-18T05:41:34.408Z,37.13
2018-02-18T05:44:02.690Z,38.10
2018-02-18T05:46:30.986Z,37.08
2018-02-18T05:49:00.092Z,33.42
2018-02-18T05:51:28.383Z,33.75
2018-02-18T05:53:56.696Z,37.28
2018-02-18T05:56:25.028Z,36.33
2018-02-18T05:58:53.341Z,36.05
2018-02-18T06:01:21.652Z,34.92
2018-02-18T06:03:49.980Z,37.72
2018-02-18T06:06:18.296Z,34.80
2018-02-18T06:08:47.402Z,36.67
2018-02-18T06:11:16.480Z,37.20
2018-02-18T06:13:44.819Z,40.60
2018-02-18T06:16:13.129Z,40.00
2018-02-18T06:18:41.438Z,42.47
2018-02-18T06:21:09.752Z,41.33
2018-02-18T06:23:38.076Z,45.55
2018-02-18T06:26:07.140Z,44.13
2018-02-18T06:28:35.482Z,40.00
2018-02-18T06:31:03.768Z,43.33
2018-02-18T06:33:32.064Z,43.38
2018-02-18T06:36:00.380Z,44.05
2018-02-18T06:38:28.690Z,41.47
2018-02-18T06:40:56.990Z,46.10
2018-02-18T06:43:25.341Z,41.65
2018-02-18T06:45:53.616Z,41.85
2018-02-18T06:48:21.923Z,40.83
2018-02-18T06:50:50.286Z,39.92
2018-02-18T06:53:18.597Z,37.55
2018-02-18T06:55:46.921Z,37.13
2018-02-18T06:58:15.207Z,39.80
2018-02-18T07:00:43.552Z,38.50
2018-02-18T07:03:12.663Z,41.58
2018-02-18T07:05:41.037Z,37.75
2018-02-18T07:08:10.182Z,36.05
2018-02-18T07:10:38.522Z,34.45
2018-02-18T07:13:06.856Z,33.85
2018-02-18T07:15:35.137Z,33.08
2018-02-18T07:18:03.451Z,35.17
2018-02-18T07:20:31.778Z,33.20
2018-02-18T07:23:00.087Z,30.35
2018-02-18T07:25:29.194Z,32.05
2018-02-18T07:27:57.596Z,31.65
2018-02-18T07:30:25.885Z,29.55
2018-02-18T07:32:54.193Z,32.40
2018-02-18T07:35:22.490Z,32.92
2018-02-18T07:37:51.585Z,32.08
2018-02-18T07:40:20.644Z,31.77
2018-02-18T07:42:48.956Z,28.55
2018-02-18T07:45:18.009Z,29.05
2018-02-18T07:47:46.329Z,29.12
2018-02-18T07:50:15.387Z,28.77
2018-02-18T07:52:43.729Z,29.92
2018-02-18T07:55:12.101Z,27.62
2018-02-18T07:57:40.362Z,27.92
2018-02-18T08:00:08.639Z,25.83
2018-02-18T08:02:37.066Z,26.25
2018-02-18T08:05:05.399Z,25.85
2018-02-18T08:07:33.750Z,23.75
2018-02-18T08:10:02.129Z,20.95
2018-02-18T08:12:31.221Z,22.45
2018-02-18T08:14:59.554Z,20.15
2018-02-18T08:17:27.871Z,22.08
2018-02-18T08:19:56.198Z,23.48
2018-02-18T08:22:24.595Z,21.17
2018-02-18T08:24:52.884Z,19.58
2018-02-18T08:27:21.236Z,21.20
2018-02-18T08:29:49.541Z,19.30
2018-02-18T08:32:17.925Z,23.73
2018-02-18T08:34:46.227Z,23.12
2018-02-18T08:37:15.304Z,21.27
2018-02-18T08:39:43.648Z,19.35
2018-02-18T08:42:11.965Z,18.08
2018-02-18T08:44:40.300Z,21.73
2018-02-18T08:47:08.608Z,21.27
2018-02-18T08:49:36.897Z,21.48
2018-02-18T08:52:05.953Z,20.33
2018-02-18T08:54:34.272Z,19.92
2018-02-18T08:57:03.324Z,20.98
2018-02-18T08:59:31.650Z,19.60
2018-02-18T09:02:00.727Z,19.58
2018-02-18T09:04:29.033Z,20.12
2018-02-18T09:06:57.353Z,17.83
2018-02-18T09:09:25.777Z,19.98
2018-02-18T09:11:54.878Z,17.92
2018-02-18T09:14:23.941Z,18.55
2018-02-18T09:16:52.239Z,20.55
2018-02-18T09:19:21.313Z,18.73
2018-02-18T09:21:49.602Z,18.27
2018-02-18T09:24:18.638Z,19.10
2018-02-18T09:26:46.954Z,19.08
2018-02-18T09:29:15.189Z,20.42
2018-02-18T09:31:43.483Z,18.95
2018-02-18T09:34:11.728Z,18.92
2018-02-18T09:36:40.768Z,17.65
2018-02-18T09:39:09.023Z,18.45
2018-02-18T09:41:37.325Z,17.45
2018-02-18T09:44:05.627Z,18.48
2018-02-18T09:46:33.942Z,16.70
2018-02-18T09:49:02.257Z,17.90
2018-02-18T09:51:30.586Z,16.95
2018-02-18T09:53:58.859Z,17.77
2018-02-18T09:56:27.143Z,17.00
2018-02-18T09:58:55.434Z,18.65
2018-02-18T10:01:23.725Z,17.77
2018-02-18T10:03:51.999Z,16.87
2018-02-18T10:06:20.244Z,18.02
2018-02-18T10:08:48.498Z,18.83
2018-02-18T10:11:17.501Z,19.52
2018-02-18T10:13:45.760Z,20.45
2018-02-18T10:16:14.774Z,19.75
2018-02-18T10:18:43.032Z,22.10
2018-02-18T10:21:12.045Z,19.02
2018-02-18T10:23:40.309Z,18.90
2018-02-18T10:26:08.563Z,18.15
2018-02-18T10:28:37.593Z,21.30
2018-02-18T10:31:05.878Z,18.92
2018-02-18T10:33:34.204Z,18.83
2018-02-18T10:36:02.445Z,18.30
2018-02-18T10:38:31.419Z,16.20
2018-02-18T10:40:59.729Z,17.90
2018-02-18T10:43:28.829Z,18.07
2018-02-18T10:45:57.180Z,17.03
2018-02-18T10:48:25.479Z,19.10
2018-02-18T10:50:53.776Z,21.10
2018-02-18T10:53:22.836Z,18.08
2018-02-18T10:55:51.079Z,15.77
2018-02-18T10:58:19.336Z,16.53
2018-02-18T11:00:48.360Z,17.30
2018-02-18T11:03:16.603Z,18.37
2018-02-18T11:05:52.348Z,18.00
2018-02-18T11:08:21.408Z,18.37
2018-02-18T11:10:49.672Z,16.83
2018-02-18T11:13:17.966Z,18.83
2018-02-18T11:15:46.321Z,14.67
2018-02-18T11:18:14.580Z,16.77
2018-02-18T11:20:42.839Z,17.97
2018-02-18T11:23:11.860Z,17.50
2018-02-18T11:25:40.102Z,18.30
2018-02-18T11:28:09.114Z,18.47
2018-02-18T11:30:37.364Z,16.30
2018-02-18T11:33:05.599Z,16.90
2018-02-18T11:35:33.850Z,17.23
2018-02-18T11:38:02.091Z,18.27
2018-02-18T11:40:30.337Z,19.37
2018-02-18T11:42:58.582Z,19.83
2018-02-18T11:45:26.829Z,19.30
2018-02-18T11:47:55.837Z,19.30
2018-02-18T11:50:24.116Z,20.47
2018-02-18T11:52:53.093Z,21.27
2018-02-18T11:55:21.334Z,20.40
2018-02-18T11:57:49.583Z,22.33
2018-02-18T12:00:17.823Z,22.30
2018-02-18T12:02:46.064Z,23.10
2018-02-18T12:05:14.302Z,22.27
2018-02-18T12:07:42.554Z,22.30
2018-02-18T12:10:10.794Z,21.30
2018-02-18T12:12:39.037Z,21.63
2018-02-18T12:15:07.282Z,22.63
2018-02-18T12:17:35.529Z,22.73
2018-02-18T12:20:04.552Z,22.13
2018-02-18T12:22:32.793Z,21.40
2018-02-18T12:25:01.030Z,23.00
2018-02-18T12:27:29.276Z,22.10
2018-02-18T12:29:57.520Z,23.23
2018-02-18T12:32:26.541Z,24.40
2018-02-18T12:34:54.780Z,24.00
2018-02-18T12:37:23.023Z,27.03
2018-02-18T12:39:51.266Z,23.80
2018-02-18T12:42:19.510Z,24.83
2018-02-18T12:44:47.758Z,23.00
2018-02-18T12:47:16.004Z,25.27
2018-02-18T12:49:44.256Z,21.47
2018-02-18T12:52:13.265Z,22.20
2018-02-18T12:54:41.523Z,24.47
2018-02-18T12:57:10.522Z,23.63
2018-02-18T12:59:38.773Z,22.57
2018-02-18T13:02:07.779Z,21.70
2018-02-18T13:04:36.788Z,19.97
2018-02-18T13:07:05.056Z,20.70
2018-02-18T13:09:34.053Z,20.13
2018-02-18T13:12:02.298Z,18.17
2018-02-18T13:14:30.552Z,16.27
2018-02-18T13:16:58.791Z,18.13
2018-02-18T13:19:27.034Z,19.87
2018-02-18T13:21:56.040Z,15.80
2018-02-18T13:24:25.050Z,16.80
2018-02-18T13:26:53.318Z,18.10
2018-02-18T13:29:21.536Z,19.60
2018-02-18T13:31:49.774Z,21.07
2018-02-18T13:34:18.038Z,22.20
2018-02-18T13:36:46.285Z,20.40
2018-02-18T13:39:15.290Z,20.40
2018-02-18T13:41:44.309Z,20.70
2018-02-18T13:44:12.548Z,20.87
2018-02-18T13:46:40.880Z,18.83
2018-02-18T13:49:09.121Z,19.40
2018-02-18T13:51:38.138Z,19.77
2018-02-18T13:54:06.382Z,17.10
2018-02-18T13:56:35.393Z,21.67
2018-02-18T13:59:03.633Z,19.50
2018-02-18T14:01:31.885Z,19.87
2018-02-18T14:04:00.208Z,19.27
2018-02-18T14:06:29.235Z,19.00
2018-02-18T14:08:57.615Z,19.47
2018-02-18T14:11:25.857Z,18.73
2018-02-18T14:13:54.862Z,18.20
2018-02-18T14:16:23.218Z,18.67
2018-02-18T14:18:52.232Z,18.60
2018-02-18T14:21:20.473Z,19.00
2018-02-18T14:23:48.718Z,20.73
2018-02-18T14:26:16.968Z,19.67
2018-02-18T14:28:45.206Z,18.57
2018-02-18T14:31:14.224Z,17.70
2018-02-18T14:33:42.469Z,17.00
2018-02-18T14:36:10.727Z,17.30
2018-02-18T14:38:38.961Z,15.70
2018-02-18T14:41:07.214Z,16.20
2018-02-18T14:43:53.369Z,16.87
2018-02-18T14:46:39.463Z,16.17
2018-02-18T14:49:25.543Z,14.70
2018-02-18T14:55:37.514Z,15.90
2018-02-18T14:58:06.529Z,16.07
2018-02-18T15:00:34.762Z,17.70
2018-02-18T15:03:03.015Z,20.97
2018-02-18T15:05:31.254Z,18.70
2018-02-18T15:07:59.529Z,17.80
2018-02-18T15:10:29.570Z,17.13
2018-02-18T15:12:58.654Z,17.67
2018-02-18T15:15:26.966Z,19.60
2018-02-18T15:17:55.392Z,17.70
2018-02-18T15:20:23.690Z,17.60
2018-02-18T15:22:52.018Z,16.50
2018-02-18T15:25:21.110Z,17.63
2018-02-18T15:27:49.424Z,18.00
2018-02-18T15:30:17.705Z,17.20
2018-02-18T15:32:46.006Z,18.50
2018-02-18T15:35:14.308Z,18.37
2018-02-18T15:37:42.587Z,17.30
2018-02-18T15:40:10.885Z,17.67
2018-02-18T15:42:39.182Z,17.97
2018-02-18T15:45:07.466Z,15.47
2018-02-18T15:47:35.718Z,16.53
2018-02-18T15:50:04.743Z,16.00
2018-02-18T15:52:32.991Z,19.27
2018-02-18T15:55:01.260Z,17.40
2018-02-18T15:57:29.521Z,17.73
2018-02-18T15:59:58.563Z,16.20
2018-02-18T16:02:26.822Z,19.63
2018-02-18T16:04:55.082Z,18.37
2018-02-18T16:07:23.387Z,18.95
2018-02-18T16:09:51.665Z,16.83
2018-02-18T16:12:19.931Z,17.95
2018-02-18T16:14:48.198Z,15.25
2018-02-18T16:17:16.457Z,15.48
2018-02-18T16:19:44.726Z,19.80
2018-02-18T16:22:13.751Z,20.00
2018-02-18T16:24:42.021Z,21.12
2018-02-18T16:27:10.284Z,22.17
2018-02-18T16:29:38.550Z,26.50
2018-02-18T16:32:06.816Z,24.65
2018-02-18T16:34:35.865Z,18.42
2018-02-18T16:37:04.151Z,19.95
2018-02-18T16:39:32.401Z,17.83
2018-02-18T16:42:00.667Z,21.27
2018-02-18T16:44:28.929Z,21.65
2018-02-18T16:46:57.198Z,16.05
2018-02-18T16:49:25.777Z,17.53
2018-02-18T16:51:54.077Z,18.35
2018-02-18T16:54:22.369Z,10.02
2018-02-18T16:56:50.615Z,21.90
2018-02-18T16:59:18.886Z,19.45
2018-02-18T17:01:47.161Z,21.48
2018-02-18T17:04:15.424Z,28.85
2018-02-18T17:06:44.469Z,23.92
2018-02-18T17:09:12.765Z,21.35
2018-02-18T17:11:41.099Z,26.08
2018-02-18T17:14:09.367Z,22.50
2018-02-18T17:16:37.637Z,23.73
2018-02-18T17:19:05.915Z,18.87
2018-02-18T17:21:34.265Z,19.87
2018-02-18T17:24:02.589Z,19.15
2018-02-18T17:26:30.898Z,20.40
2018-02-18T17:28:59.853Z,22.00
2018-02-18T17:31:28.186Z,20.17
2018-02-18T17:33:56.479Z,22.15
2018-02-18T17:36:25.559Z,16.65
2018-02-18T17:38:53.956Z,20.62
2018-02-18T17:41:22.267Z,20.83
2018-02-18T17:43:50.553Z,18.60
2018-02-18T17:46:18.854Z,19.50
2018-02-18T17:48:47.159Z,17.80
2018-02-18T17:51:16.215Z,20.20
2018-02-18T17:53:44.526Z,21.42
2018-02-18T17:56:13.661Z,20.50
2018-02-18T17:58:41.966Z,24.33
2018-02-18T18:01:10.240Z,20.85
2018-02-18T18:03:38.581Z,19.60
2018-02-18T18:06:06.938Z,21.25
2018-02-18T18:08:36.046Z,21.08
2018-02-18T18:11:04.357Z,21.35
2018-02-18T18:13:32.646Z,20.95
2018-02-18T18:16:01.010Z,23.10
2018-02-18T18:18:41.743Z,23.23
2018-02-18T18:21:10.080Z,22.20
2018-02-18T18:23:38.442Z,23.45
2018-02-18T18:26:06.793Z,23.08
2018-02-18T18:28:35.119Z,22.98
2018-02-18T18:31:03.434Z,23.62
2018-02-18T18:33:31.764Z,21.75
2018-02-18T18:36:00.111Z,23.75
2018-02-18T18:38:28.389Z,34.95
2018-02-18T18:40:56.667Z,36.50
2018-02-18T18:43:25.343Z,33.35
2018-02-18T18:45:54.079Z,38.50
2018-02-18T18:48:22.471Z,29.87
2018-02-18T18:50:51.643Z,32.03
2018-02-18T18:53:19.975Z,36.67
2018-02-18T18:55:48.328Z,31.23
2018-02-18T18:58:17.363Z,32.35
2018-02-18T19:00:45.633Z,29.02
2018-02-18T19:03:13.889Z,25.92
2018-02-18T19:05:42.213Z,24.92
2018-02-18T19:08:11.370Z,27.17
2018-02-18T19:10:39.628Z,28.25
2018-02-18T19:13:08.108Z,26.60
2018-02-18T19:15:36.400Z,28.08
2018-02-18T19:18:04.671Z,27.67
2018-02-18T19:20:33.052Z,24.85
2018-02-18T19:23:01.372Z,26.10
2018-02-18T19:25:29.623Z,27.05
2018-02-18T19:27:57.868Z,24.50
2018-02-18T19:30:26.131Z,25.88
2018-02-18T19:32:55.151Z,23.80
2018-02-18T19:35:23.411Z,23.42
2018-02-18T19:37:52.421Z,25.40
2018-02-18T19:40:20.681Z,25.58
2018-02-18T19:42:48.945Z,24.40
2018-02-18T19:45:17.979Z,24.15
2018-02-18T19:47:46.229Z,23.40
2018-02-18T19:50:14.490Z,23.75
2018-02-18T19:52:43.507Z,25.70
2018-02-18T19:55:11.784Z,21.60
2018-02-18T19:57:40.037Z,23.92
2018-02-18T20:00:09.078Z,23.35
2018-02-18T20:02:37.339Z,22.00
2018-02-18T20:05:05.610Z,23.60
2018-02-18T20:07:33.872Z,23.77
2018-02-18T20:10:02.140Z,23.35
2018-02-18T20:12:31.217Z,24.45
2018-02-18T20:14:59.471Z,23.05
2018-02-18T20:17:27.734Z,23.08
2018-02-18T20:19:55.991Z,23.33
2018-02-18T20:22:24.262Z,23.25
2018-02-18T20:24:52.526Z,22.20
2018-02-18T20:27:20.821Z,23.92
2018-02-18T20:29:49.829Z,23.58
2018-02-18T20:32:18.092Z,21.60
2018-02-18T20:34:46.367Z,24.48
2018-02-18T20:37:14.636Z,22.90
2018-02-18T20:39:42.940Z,24.30
2018-02-18T20:42:11.202Z,24.77
2018-02-18T20:44:39.470Z,23.30
2018-02-18T20:47:07.796Z,24.75
2018-02-18T20:49:36.842Z,23.30
2018-02-18T20:52:05.119Z,22.70
2018-02-18T20:54:33.376Z,24.45
2018-02-18T20:57:01.632Z,24.92
2018-02-18T20:59:30.660Z,25.67
2018-02-18T21:01:58.920Z,22.95
2018-02-18T21:04:27.188Z,23.33
2018-02-18T21:06:56.209Z,26.05
2018-02-18T21:09:24.472Z,27.08
2018-02-18T21:11:52.777Z,26.12
2018-02-18T21:14:21.040Z,25.88
2018-02-18T21:16:49.325Z,26.48
2018-02-18T21:19:17.583Z,27.30
2018-02-18T21:21:45.830Z,28.38
2018-02-18T21:24:14.891Z,30.10
2018-02-18T21:26:43.155Z,24.95
2018-02-18T21:29:11.420Z,26.90
2018-02-18T21:31:39.684Z,24.48
2018-02-18T21:34:07.940Z,25.80
2018-02-18T21:36:36.405Z,28.38
2018-02-18T21:39:05.472Z,28.27
2018-02-18T21:41:33.761Z,26.35
2018-02-18T21:44:02.036Z,29.67
2018-02-18T21:46:30.302Z,29.65
2018-02-18T21:48:58.567Z,31.73
2018-02-18T21:51:26.852Z,33.80
2018-02-18T21:53:55.129Z,30.50
2018-02-18T21:56:23.404Z,30.98
2018-02-18T21:58:51.685Z,34.30
2018-02-18T22:01:19.961Z,31.48
2018-02-18T22:03:48.256Z,34.85
2018-02-18T22:06:17.317Z,37.28
2018-02-18T22:08:45.621Z,34.08
2018-02-18T22:11:16.466Z,36.65
2018-02-18T22:13:45.560Z,32.55
2018-02-18T22:16:14.625Z,32.33
2018-02-18T22:18:42.902Z,30.15
2018-02-18T22:21:11.205Z,34.10
2018-02-18T22:23:40.271Z,33.63
2018-02-18T22:26:08.552Z,30.08
2018-02-18T22:28:36.856Z,28.83
2018-02-18T22:31:05.909Z,32.38
2018-02-18T22:33:34.715Z,29.00
2018-02-18T22:36:03.003Z,31.15
2018-02-18T22:38:32.071Z,33.40
2018-02-18T22:41:00.345Z,38.55
2018-02-18T22:43:28.617Z,35.63
2018-02-18T22:45:56.912Z,29.48
2018-02-18T22:48:25.182Z,28.58
2018-02-18T22:50:53.483Z,31.60
2018-02-18T22:53:22.566Z,31.77
2018-02-18T22:55:50.860Z,33.28
2018-02-18T22:58:19.899Z,32.15
2018-02-18T23:00:48.185Z,33.95
2018-02-18T23:03:16.468Z,37.30
2018-02-18T23:05:50.321Z,34.45
2018-02-18T23:08:18.628Z,33.60
2018-02-18T23:10:46.956Z,33.28
2018-02-18T23:13:16.022Z,35.75
2018-02-18T23:15:45.072Z,35.88
2018-02-18T23:18:13.361Z,35.83
2018-02-18T23:20:59.454Z,36.33
2018-02-18T23:23:27.724Z,33.30
2018-02-18T23:25:56.001Z,33.13
2018-02-18T23:28:24.287Z,31.55
2018-02-18T23:30:52.575Z,31.25
2018-02-18T23:33:20.831Z,32.95
2018-02-18T23:35:49.200Z,36.28
2018-02-18T23:38:17.475Z,37.50
2018-02-18T23:40:45.745Z,37.45
2018-02-18T23:43:14.022Z,34.47
2018-02-18T23:45:43.125Z,34.90
2018-02-18T23:48:11.495Z,34.72
2018-02-18T23:50:40.645Z,37.95
2018-02-18T23:53:08.990Z,36.55
2018-02-18T23:55:37.329Z,35.15
2018-02-18T23:58:06.410Z,34.95
